Skip Navigation LinksHome page > Weather > Current weather Skip Navigation Links

Current Weather

La Guardia, New York

For information only: do not use for flight planning or navigation.
Latest weather
Observation time Monday, June 21, 2021 8:51 PM EDT
Local time Monday, June 21, 2021 9:37 PM EDT
Flight conditions Visual Meteorological Conditions
Winds
Wind direction South (180°)
Wind speed 13 mph
Visibility 10 mi.
Sky condition
Ceiling 25,000 ft. broken clouds
Cloud layer few clouds 4,500 ft.
Cloud layer broken clouds 25,000 ft.
Temperature 79°F
Dewpoint 68°F
Altimeter 29.61 in.Hg
Derived measurements
Relative humidity 69%
Heat index 79°F
Density altitude 1977 ft.
Sea-level pressure 29.61 in.Hg
Remarks
Corrected report.
Automated weather observing station with precipitation discriminator.
METAR KLGA 220051Z COR 18011KT 10SM FEW045 BKN250CLR 26/20 A2961 RMK AO2 SLP026 T02610200

Settings

Location code

InnerDrive.Weather 4.0.6770.0 Release CLR 4.0.30319.42000
Copyright ©2018 Inner Drive Technology. All rights reserved. Portions Copyright ©1986-2018 David Braverman.

Find weather

Site navigation


Skip Navigation Links

Place info

Page info

PayPal - The safer, easier way to pay online!

Return home.

Copyright ©2021 Inner Drive Technology. Purveyors of fine, hand-crafted computer software. Page printed 2021-06-22T01:38:00 UTC.